Time;durP1;ratioP1;P1;durP2;ratioP2;P2;SDS_P1;SDS_P2;PMS_P1;PMS_P2;Temp;Humidity;BMP_temperature;BMP_pressure;BME280_temperature;BME280_humidity;BME280_pressure;Samples;Min_cycle;Max_cycle;Signal;HPM_P1;HPM_P2
2022/11/03 00:01:57;;;;;;;;;;;19.40;68.50;;;;;;4492786;31;19973;-69
2022/11/03 00:04:23;;;;;;;;;;;19.40;68.50;;;;;;4492799;31;20023;-70
2022/11/03 00:06:50;;;;;;;;;;;19.40;68.40;;;;;;4492723;31;19973;-70
2022/11/03 00:09:16;;;;;;;;;;;19.40;68.50;;;;;;4492375;31;19982;-70
2022/11/03 00:11:43;;;;;;;;;;;19.40;68.50;;;;;;4492774;31;19990;-69
2022/11/03 00:14:09;;;;;;;;;;;19.40;68.60;;;;;;4493036;31;19977;-70
2022/11/03 00:16:35;;;;;;;;;;;19.40;68.60;;;;;;4492630;31;20049;-70
2022/11/03 00:19:01;;;;;;;;;;;19.40;68.50;;;;;;4492966;31;19984;-70
2022/11/03 00:21:27;;;;;;;;;;;19.30;68.50;;;;;;4492855;31;19970;-70
2022/11/03 00:23:53;;;;;;;;;;;19.30;68.60;;;;;;4492772;31;20083;-70
2022/11/03 00:26:20;;;;;;;;;;;19.30;68.50;;;;;;4492857;31;20489;-70
2022/11/03 00:28:46;;;;;;;;;;;19.30;68.60;;;;;;4493088;31;19970;-70
2022/11/03 00:31:14;;;;;;;;;;;19.30;68.60;;;;;;4493059;31;20021;-69
2022/11/03 00:33:40;;;;;;;;;;;19.30;68.60;;;;;;4492678;31;19988;-70
2022/11/03 00:36:07;;;;;;;;;;;19.30;68.60;;;;;;4492221;31;19970;-70
2022/11/03 00:38:33;;;;;;;;;;;19.30;68.60;;;;;;4492778;31;20462;-69
2022/11/03 00:41:00;;;;;;;;;;;19.30;68.60;;;;;;4492700;31;20046;-69
2022/11/03 00:43:26;;;;;;;;;;;19.30;68.60;;;;;;4492695;31;20334;-70
2022/11/03 00:45:53;;;;;;;;;;;19.30;68.60;;;;;;4492983;32;19989;-69
2022/11/03 00:48:34;;;;;;;;;;;19.30;68.60;;;;;;4492681;32;20035;-70
2022/11/03 00:51:00;;;;;;;;;;;19.20;68.60;;;;;;4492820;32;20413;-69
2022/11/03 00:53:26;;;;;;;;;;;19.30;68.60;;;;;;4492345;32;20015;-70
2022/11/03 00:55:52;;;;;;;;;;;19.20;68.60;;;;;;4492513;32;20492;-69
2022/11/03 00:58:18;;;;;;;;;;;19.20;68.60;;;;;;4494079;31;20101;-69
2022/11/03 01:00:43;;;;;;;;;;;19.20;68.50;;;;;;4495734;31;20430;-69
2022/11/03 01:03:09;;;;;;;;;;;19.20;68.60;;;;;;4495667;31;19974;-69
2022/11/03 01:08:23;;;;;;;;;;;19.20;68.60;;;;;;4495964;31;20016;-70
2022/11/03 01:13:33;;;;;;;;;;;19.20;68.50;;;;;;4495605;31;20002;-70
2022/11/03 01:15:58;;;;;;;;;;;19.20;68.50;;;;;;4495474;31;19984;-69
2022/11/03 01:18:24;;;;;;;;;;;19.20;68.50;;;;;;4495478;31;20387;-69
2022/11/03 01:20:56;;;;;;;;;;;19.20;68.50;;;;;;4495196;31;20037;-70
2022/11/03 01:23:23;;;;;;;;;;;19.10;68.50;;;;;;4495516;31;20327;-69
2022/11/03 01:25:49;;;;;;;;;;;19.10;68.60;;;;;;4495668;31;20404;-70
2022/11/03 01:28:14;;;;;;;;;;;19.10;69.40;;;;;;4495486;31;19987;-70
2022/11/03 01:30:40;;;;;;;;;;;19.20;68.60;;;;;;4495076;31;19977;-70
2022/11/03 01:33:06;;;;;;;;;;;19.10;68.60;;;;;;4495454;31;20421;-70
2022/11/03 01:35:32;;;;;;;;;;;19.10;68.60;;;;;;4495029;31;19986;-69
2022/11/03 01:37:58;;;;;;;;;;;19.10;68.60;;;;;;4495089;31;19969;-70
2022/11/03 01:40:23;;;;;;;;;;;19.10;68.50;;;;;;4495256;31;20032;-69
2022/11/03 01:42:49;;;;;;;;;;;19.10;68.60;;;;;;4495180;31;20009;-69
2022/11/03 01:45:15;;;;;;;;;;;19.10;68.60;;;;;;4495114;31;20092;-70
2022/11/03 01:47:42;;;;;;;;;;;19.10;68.50;;;;;;4495035;31;19961;-70
2022/11/03 01:50:13;;;;;;;;;;;19.10;68.50;;;;;;4480865;31;19966;-69
2022/11/03 01:52:45;;;;;;;;;;;19.10;68.50;;;;;;4495442;31;19980;-69
2022/11/03 01:55:38;;;;;;;;;;;19.10;68.50;;;;;;4495057;31;19977;-69
2022/11/03 01:58:16;;;;;;;;;;;19.10;68.40;;;;;;4493191;31;20325;-69
2022/11/03 02:00:42;;;;;;;;;;;19.10;68.50;;;;;;4494959;31;20411;-69
2022/11/03 02:03:08;;;;;;;;;;;19.00;68.40;;;;;;4494766;31;19981;-70
2022/11/03 02:05:35;;;;;;;;;;;19.00;68.40;;;;;;4494578;31;19974;-69
2022/11/03 02:08:04;;;;;;;;;;;19.10;68.40;;;;;;4494694;31;19988;-70
2022/11/03 02:10:29;;;;;;;;;;;19.10;68.50;;;;;;4494608;31;19985;-69
2022/11/03 02:12:55;;;;;;;;;;;19.00;68.40;;;;;;4494399;31;20066;-69
2022/11/03 02:15:21;;;;;;;;;;;19.00;68.30;;;;;;4494664;31;20025;-69
2022/11/03 02:17:48;;;;;;;;;;;19.00;68.30;;;;;;4494526;31;20020;-69
2022/11/03 02:20:15;;;;;;;;;;;19.00;68.30;;;;;;4494678;31;20358;-69
2022/11/03 02:22:49;;;;;;;;;;;19.00;68.30;;;;;;4494588;31;19977;-69
2022/11/03 02:25:30;;;;;;;;;;;19.00;68.30;;;;;;4494625;31;20104;-70
2022/11/03 02:27:56;;;;;;;;;;;19.00;68.30;;;;;;4494657;31;19973;-70
2022/11/03 02:30:22;;;;;;;;;;;19.00;68.30;;;;;;4494542;31;20062;-69
2022/11/03 02:32:48;;;;;;;;;;;19.00;68.30;;;;;;4480290;31;19984;-70
2022/11/03 02:35:21;;;;;;;;;;;19.00;68.20;;;;;;4494185;31;19988;-69
2022/11/03 02:37:49;;;;;;;;;;;19.00;68.30;;;;;;4494148;31;20178;-70
2022/11/03 02:40:21;;;;;;;;;;;19.00;68.20;;;;;;4494339;31;19989;-69
2022/11/03 02:42:48;;;;;;;;;;;18.90;68.20;;;;;;4494347;31;20043;-70
2022/11/03 02:45:17;;;;;;;;;;;19.00;68.30;;;;;;4494290;31;19973;-69
2022/11/03 02:47:43;;;;;;;;;;;18.90;68.20;;;;;;4494445;31;20001;-69
2022/11/03 02:50:09;;;;;;;;;;;18.90;68.10;;;;;;4494096;31;19973;-70
2022/11/03 02:52:36;;;;;;;;;;;18.90;68.20;;;;;;4493860;31;20434;-69
2022/11/03 02:55:25;;;;;;;;;;;19.00;68.20;;;;;;4494033;31;20319;-71
2022/11/03 02:57:54;;;;;;;;;;;18.90;68.10;;;;;;4475361;31;19989;-70
2022/11/03 03:00:19;;;;;;;;;;;19.00;68.20;;;;;;4493735;31;19980;-69
2022/11/03 03:02:51;;;;;;;;;;;18.90;68.20;;;;;;4493869;31;19969;-70
2022/11/03 03:05:19;;;;;;;;;;;18.90;68.20;;;;;;4494031;31;19991;-69
2022/11/03 03:07:47;;;;;;;;;;;18.90;69.10;;;;;;4493981;31;20096;-69
2022/11/03 03:10:17;;;;;;;;;;;18.90;68.20;;;;;;4493877;31;20078;-69
2022/11/03 03:12:51;;;;;;;;;;;18.90;68.10;;;;;;4493633;31;20036;-69
2022/11/03 03:15:18;;;;;;;;;;;18.90;68.20;;;;;;4494291;31;19981;-70
2022/11/03 03:17:48;;;;;;;;;;;18.90;68.20;;;;;;4493711;31;20489;-69
2022/11/03 03:20:18;;;;;;;;;;;18.80;68.20;;;;;;4493377;31;20017;-69
2022/11/03 03:22:54;;;;;;;;;;;18.90;68.20;;;;;;4493964;31;19981;-70
2022/11/03 03:25:25;;;;;;;;;;;18.80;68.20;;;;;;4493306;31;20012;-70
2022/11/03 03:27:57;;;;;;;;;;;18.90;68.30;;;;;;4493342;31;19988;-70
2022/11/03 03:30:23;;;;;;;;;;;18.90;68.30;;;;;;4493572;31;20411;-70
2022/11/03 03:32:50;;;;;;;;;;;18.90;68.20;;;;;;4493540;31;20042;-70
2022/11/03 03:35:18;;;;;;;;;;;18.80;68.20;;;;;;4493490;31;19988;-69
2022/11/03 03:37:46;;;;;;;;;;;18.80;68.20;;;;;;4493124;31;19977;-70
2022/11/03 03:40:15;;;;;;;;;;;18.80;68.10;;;;;;4479176;31;20513;-70
2022/11/03 03:42:42;;;;;;;;;;;18.80;68.20;;;;;;4493328;31;20323;-70
2022/11/03 03:45:09;;;;;;;;;;;18.80;68.20;;;;;;4493065;31;20111;-70
2022/11/03 03:47:35;;;;;;;;;;;18.80;68.20;;;;;;4493020;31;20063;-69
2022/11/03 03:50:00;;;;;;;;;;;18.80;68.10;;;;;;4493219;31;19974;-70
2022/11/03 03:52:27;;;;;;;;;;;18.80;68.20;;;;;;4493043;31;20040;-70
2022/11/03 03:54:54;;;;;;;;;;;18.80;68.20;;;;;;4493324;31;20221;-70
2022/11/03 03:57:21;;;;;;;;;;;18.80;68.20;;;;;;4493073;31;20422;-70
2022/11/03 03:59:48;;;;;;;;;;;18.70;68.10;;;;;;4493180;31;19977;-70
2022/11/03 04:02:13;;;;;;;;;;;18.80;68.20;;;;;;4492928;31;20019;-70
2022/11/03 04:04:39;;;;;;;;;;;18.80;68.20;;;;;;4479220;31;19961;-70
2022/11/03 04:09:49;;;;;;;;;;;18.70;68.20;;;;;;4493464;31;19973;-70
2022/11/03 04:23:14;;;;;;;;;;;18.70;68.30;;;;;;4492716;31;20012;-71
2022/11/03 04:25:41;;;;;;;;;;;18.70;68.20;;;;;;4492644;31;20407;-70
2022/11/03 04:28:11;;;;;;;;;;;18.70;68.20;;;;;;4492888;31;20389;-70
2022/11/03 04:30:36;;;;;;;;;;;18.70;68.20;;;;;;4493064;31;20430;-70
2022/11/03 04:33:04;;;;;;;;;;;18.70;68.20;;;;;;4492588;31;20095;-70
2022/11/03 04:35:30;;;;;;;;;;;18.70;69.10;;;;;;4492387;31;19969;-69
2022/11/03 04:38:28;;;;;;;;;;;18.70;68.30;;;;;;4492993;31;19980;-69
2022/11/03 04:40:55;;;;;;;;;;;18.70;68.20;;;;;;4465800;31;20013;-70
2022/11/03 04:43:22;;;;;;;;;;;18.70;68.20;;;;;;4492378;31;20096;-70
2022/11/03 04:45:48;;;;;;;;;;;18.60;68.20;;;;;;4492382;32;19982;-69
2022/11/03 04:48:15;;;;;;;;;;;18.60;68.30;;;;;;4478461;32;20006;-70
2022/11/03 04:50:41;;;;;;;;;;;18.60;68.30;;;;;;4492716;32;20490;-69
2022/11/03 04:53:13;;;;;;;;;;;18.60;68.30;;;;;;4492172;32;19974;-70
2022/11/03 04:55:39;;;;;;;;;;;18.60;68.30;;;;;;4492644;32;20415;-69
2022/11/03 04:58:24;;;;;;;;;;;18.60;68.30;;;;;;4492383;32;19977;-70
2022/11/03 05:00:50;;;;;;;;;;;18.60;68.30;;;;;;4492242;32;19969;-70
2022/11/03 05:03:19;;;;;;;;;;;18.60;68.30;;;;;;4492538;32;20420;-70
2022/11/03 05:05:45;;;;;;;;;;;18.60;68.20;;;;;;4492314;32;19977;-70
2022/11/03 05:08:11;;;;;;;;;;;18.60;68.30;;;;;;4492259;32;19962;-70
2022/11/03 05:10:37;;;;;;;;;;;18.60;68.30;;;;;;4492546;32;20041;-70
2022/11/03 05:13:02;;;;;;;;;;;18.60;68.20;;;;;;4492499;32;20427;-70
2022/11/03 05:15:30;;;;;;;;;;;18.60;68.30;;;;;;4492630;32;20380;-70
2022/11/03 05:17:57;;;;;;;;;;;18.60;68.30;;;;;;4492426;32;19993;-70
2022/11/03 05:20:32;;;;;;;;;;;18.60;68.30;;;;;;4492406;32;20379;-69
2022/11/03 05:22:57;;;;;;;;;;;18.60;68.20;;;;;;4492393;32;19978;-70
2022/11/03 05:25:35;;;;;;;;;;;18.60;68.30;;;;;;4492274;32;20031;-70
2022/11/03 05:28:01;;;;;;;;;;;18.60;68.30;;;;;;4492395;32;19986;-69
2022/11/03 05:30:28;;;;;;;;;;;18.60;68.30;;;;;;4492283;32;19969;-70
2022/11/03 05:32:54;;;;;;;;;;;18.60;68.20;;;;;;4492291;32;20009;-70
2022/11/03 05:35:21;;;;;;;;;;;18.60;68.20;;;;;;4492025;32;19984;-70
2022/11/03 05:37:48;;;;;;;;;;;18.60;68.20;;;;;;4492170;32;20496;-70
2022/11/03 05:40:20;;;;;;;;;;;18.60;68.20;;;;;;4492509;32;20009;-70
2022/11/03 05:42:48;;;;;;;;;;;18.60;68.20;;;;;;4478178;31;20338;-70
2022/11/03 05:45:14;;;;;;;;;;;18.50;68.20;;;;;;4494862;31;20497;-70
2022/11/03 05:47:40;;;;;;;;;;;18.60;68.30;;;;;;4495156;31;20107;-69
2022/11/03 05:50:12;;;;;;;;;;;18.60;68.20;;;;;;4495051;31;20091;-70
2022/11/03 05:52:37;;;;;;;;;;;18.50;68.20;;;;;;4495149;31;19977;-69
2022/11/03 05:55:03;;;;;;;;;;;18.50;68.20;;;;;;4494818;31;20472;-70
2022/11/03 05:57:32;;;;;;;;;;;18.50;68.20;;;;;;4494681;31;20013;-69
2022/11/03 05:59:58;;;;;;;;;;;18.50;68.30;;;;;;4494989;31;19973;-70
2022/11/03 06:02:27;;;;;;;;;;;18.50;68.30;;;;;;4494845;31;20090;-70
2022/11/03 06:04:53;;;;;;;;;;;18.50;68.30;;;;;;4494823;31;20048;-70
2022/11/03 06:07:26;;;;;;;;;;;18.50;68.30;;;;;;4494780;31;20031;-69
2022/11/03 06:09:52;;;;;;;;;;;18.50;68.30;;;;;;4494724;31;20422;-70
2022/11/03 06:12:19;;;;;;;;;;;18.50;68.30;;;;;;4494931;31;19969;-69
2022/11/03 06:14:45;;;;;;;;;;;18.50;68.30;;;;;;4494434;31;19986;-69
2022/11/03 06:17:31;;;;;;;;;;;18.50;68.30;;;;;;4494260;31;19983;-70
2022/11/03 06:19:58;;;;;;;;;;;18.50;68.20;;;;;;4494339;31;20028;-70
2022/11/03 06:22:33;;;;;;;;;;;18.50;68.30;;;;;;4494690;31;20063;-70
2022/11/03 06:25:19;;;;;;;;;;;18.50;68.30;;;;;;4494583;31;20532;-70
2022/11/03 06:27:45;;;;;;;;;;;18.40;68.20;;;;;;4494733;31;20331;-69
2022/11/03 06:30:11;;;;;;;;;;;18.50;68.30;;;;;;4494293;31;20375;-70
2022/11/03 06:32:36;;;;;;;;;;;18.50;68.30;;;;;;4494464;31;19992;-70
2022/11/03 06:35:02;;;;;;;;;;;18.50;68.30;;;;;;4480171;31;19962;-70
2022/11/03 06:37:31;;;;;;;;;;;18.50;68.30;;;;;;4493774;31;19970;-69
2022/11/03 06:39:59;;;;;;;;;;;18.40;68.20;;;;;;4494085;31;20420;-70
2022/11/03 06:42:25;;;;;;;;;;;18.50;68.30;;;;;;4479795;31;20158;-69
2022/11/03 06:44:51;;;;;;;;;;;18.40;68.20;;;;;;4494446;31;19974;-71
2022/11/03 06:47:24;;;;;;;;;;;18.40;68.20;;;;;;4494800;31;19961;-70
2022/11/03 06:49:50;;;;;;;;;;;18.40;68.20;;;;;;4494159;31;19988;-70
2022/11/03 06:52:29;;;;;;;;;;;18.40;68.30;;;;;;4494317;31;19989;-70
2022/11/03 06:54:55;;;;;;;;;;;18.40;68.20;;;;;;4493466;31;20429;-70
2022/11/03 06:57:21;;;;;;;;;;;18.40;68.20;;;;;;4493659;31;19974;-70
2022/11/03 06:59:46;;;;;;;;;;;18.40;68.30;;;;;;4494093;31;19980;-70
2022/11/03 07:02:31;;;;;;;;;;;18.40;68.20;;;;;;4493966;31;20051;-70
2022/11/03 07:04:58;;;;;;;;;;;18.40;68.20;;;;;;4493856;31;19981;-70
2022/11/03 07:07:24;;;;;;;;;;;18.40;68.30;;;;;;4493900;31;20142;-70
2022/11/03 07:09:50;;;;;;;;;;;18.40;68.20;;;;;;4494173;31;19957;-70
2022/11/03 07:12:17;;;;;;;;;;;18.40;68.20;;;;;;4493798;31;20095;-70
2022/11/03 07:14:43;;;;;;;;;;;18.40;68.30;;;;;;4493517;31;19973;-70
2022/11/03 07:17:18;;;;;;;;;;;18.40;68.30;;;;;;4493540;31;19970;-71
2022/11/03 07:19:44;;;;;;;;;;;18.40;68.30;;;;;;4493932;31;20021;-70
2022/11/03 07:22:13;;;;;;;;;;;18.40;68.30;;;;;;4493626;31;20049;-68
2022/11/03 07:24:39;;;;;;;;;;;18.30;68.40;;;;;;4493550;31;20107;-69
2022/11/03 07:27:14;;;;;;;;;;;18.30;67.70;;;;;;4493567;31;19993;-69
2022/11/03 07:29:41;;;;;;;;;;;18.30;67.60;;;;;;4493513;31;20105;-70
2022/11/03 07:32:21;;;;;;;;;;;18.30;68.20;;;;;;4493206;31;19989;-79
2022/11/03 07:34:47;;;;;;;;;;;18.30;68.50;;;;;;4493353;31;19981;-70
2022/11/03 07:37:14;;;;;;;;;;;18.30;68.60;;;;;;4489107;31;19969;-70
2022/11/03 07:39:40;;;;;;;;;;;18.30;68.70;;;;;;4493483;31;19990;-70
2022/11/03 07:42:16;;;;;;;;;;;18.30;68.60;;;;;;4493622;31;19992;-69
2022/11/03 07:44:42;;;;;;;;;;;18.30;68.90;;;;;;4493214;31;19988;-70
2022/11/03 07:47:17;;;;;;;;;;;18.30;69.00;;;;;;4493028;31;19970;-70
2022/11/03 07:49:43;;;;;;;;;;;18.30;69.00;;;;;;4493271;31;20107;-70
2022/11/03 07:52:11;;;;;;;;;;;18.30;69.10;;;;;;4492997;31;19987;-69
2022/11/03 07:54:36;;;;;;;;;;;18.30;69.10;;;;;;4493276;31;19986;-69
2022/11/03 07:57:04;;;;;;;;;;;18.30;69.20;;;;;;4493156;31;20005;-69
2022/11/03 07:59:32;;;;;;;;;;;18.30;69.30;;;;;;4492869;31;19969;-70
2022/11/03 08:01:58;;;;;;;;;;;18.30;69.20;;;;;;4493140;31;19977;-70
2022/11/03 08:04:25;;;;;;;;;;;18.30;69.20;;;;;;4493043;31;20163;-70
2022/11/03 08:06:51;;;;;;;;;;;18.30;69.20;;;;;;4493012;31;20054;-69
2022/11/03 08:09:17;;;;;;;;;;;18.30;69.20;;;;;;4493393;31;19970;-70
2022/11/03 08:11:42;;;;;;;;;;;18.30;69.40;;;;;;4492979;31;20003;-69
2022/11/03 08:14:09;;;;;;;;;;;18.30;69.20;;;;;;4493195;31;20094;-69
2022/11/03 08:16:35;;;;;;;;;;;18.30;70.10;;;;;;4492861;31;20393;-69
2022/11/03 08:19:01;;;;;;;;;;;18.30;69.20;;;;;;4493191;31;19957;-70
2022/11/03 08:21:27;;;;;;;;;;;18.30;69.20;;;;;;4493016;31;19973;-69
2022/11/03 08:23:52;;;;;;;;;;;18.30;69.10;;;;;;4492925;31;19965;-70
2022/11/03 08:26:18;;;;;;;;;;;18.30;69.30;;;;;;4492853;31;20510;-69
2022/11/03 08:28:44;;;;;;;;;;;18.30;69.30;;;;;;4492581;31;20441;-69
2022/11/03 08:31:09;;;;;;;;;;;18.30;69.20;;;;;;4491748;31;19977;-70
2022/11/03 08:33:35;;;;;;;;;;;18.30;69.30;;;;;;4492607;31;19996;-69
2022/11/03 08:36:02;;;;;;;;;;;18.30;69.30;;;;;;4492351;31;20147;-70
2022/11/03 08:38:27;;;;;;;;;;;18.30;69.40;;;;;;4492668;31;19992;-69
2022/11/03 08:40:54;;;;;;;;;;;18.30;69.50;;;;;;4492320;31;19973;-70
2022/11/03 08:43:21;;;;;;;;;;;18.30;69.60;;;;;;4492683;31;19969;-70
2022/11/03 08:45:52;;;;;;;;;;;18.30;69.70;;;;;;4492717;31;19973;-69
2022/11/03 08:48:21;;;;;;;;;;;18.40;69.70;;;;;;4492991;32;20461;-70
2022/11/03 08:50:49;;;;;;;;;;;18.50;69.40;;;;;;4492952;32;20031;-69
2022/11/03 08:53:15;;;;;;;;;;;18.60;69.10;;;;;;4492777;32;20017;-70
2022/11/03 08:55:41;;;;;;;;;;;18.60;68.80;;;;;;4492600;32;20330;-70
2022/11/03 08:58:07;;;;;;;;;;;18.70;68.60;;;;;;4492477;32;19978;-70
2022/11/03 09:00:35;;;;;;;;;;;18.90;68.40;;;;;;4492755;32;19973;-69
2022/11/03 09:03:00;;;;;;;;;;;19.00;68.20;;;;;;4492446;32;19966;-70
2022/11/03 09:05:26;;;;;;;;;;;19.20;67.90;;;;;;4492455;32;19974;-70
2022/11/03 09:07:52;;;;;;;;;;;19.30;67.60;;;;;;4492501;32;19973;-70
2022/11/03 09:10:17;;;;;;;;;;;19.40;67.20;;;;;;4492242;32;20047;-70
2022/11/03 09:12:43;;;;;;;;;;;19.50;66.90;;;;;;4477931;32;20028;-70
2022/11/03 09:15:09;;;;;;;;;;;19.60;66.60;;;;;;4492369;32;19977;-70
2022/11/03 09:17:35;;;;;;;;;;;19.80;66.40;;;;;;4492142;31;20032;-70
2022/11/03 09:20:00;;;;;;;;;;;19.80;66.30;;;;;;4494681;31;19974;-70
2022/11/03 09:22:26;;;;;;;;;;;19.90;66.00;;;;;;4495498;31;19973;-70
2022/11/03 09:24:52;;;;;;;;;;;20.00;65.90;;;;;;4495683;31;19966;-70
2022/11/03 09:27:17;;;;;;;;;;;20.10;65.70;;;;;;4495608;31;19961;-70
2022/11/03 09:29:43;;;;;;;;;;;20.10;65.60;;;;;;4495147;31;20307;-70
2022/11/03 09:32:09;;;;;;;;;;;20.20;65.50;;;;;;4481244;31;20294;-70
2022/11/03 09:34:35;;;;;;;;;;;20.20;65.40;;;;;;4495234;31;20098;-70
2022/11/03 09:37:01;;;;;;;;;;;20.20;65.30;;;;;;4494831;31;19982;-70
2022/11/03 09:39:26;;;;;;;;;;;20.30;65.20;;;;;;4495295;31;19961;-70
2022/11/03 09:41:54;;;;;;;;;;;20.30;65.10;;;;;;4495420;31;19980;-71
2022/11/03 09:44:21;;;;;;;;;;;20.40;65.10;;;;;;4495213;31;20027;-70
2022/11/03 09:46:46;;;;;;;;;;;20.40;65.00;;;;;;4495047;31;20409;-71
2022/11/03 09:49:14;;;;;;;;;;;20.40;64.90;;;;;;4480850;31;20108;-70
2022/11/03 09:51:40;;;;;;;;;;;20.40;64.80;;;;;;4495007;31;19977;-71
2022/11/03 09:54:05;;;;;;;;;;;20.50;64.90;;;;;;4495188;31;20048;-70
2022/11/03 09:56:33;;;;;;;;;;;20.50;64.80;;;;;;4494891;31;20322;-70
2022/11/03 09:58:59;;;;;;;;;;;20.50;64.80;;;;;;4495071;31;19965;-70
2022/11/03 10:01:25;;;;;;;;;;;20.50;64.80;;;;;;4494622;31;20032;-70
2022/11/03 10:03:51;;;;;;;;;;;20.60;64.70;;;;;;4494894;31;19974;-70
2022/11/03 10:06:16;;;;;;;;;;;20.60;64.60;;;;;;4494871;31;20295;-70
2022/11/03 10:08:43;;;;;;;;;;;20.60;64.60;;;;;;4494710;31;19958;-70
2022/11/03 10:11:08;;;;;;;;;;;20.60;64.60;;;;;;4494505;31;20058;-70
2022/11/03 10:13:37;;;;;;;;;;;20.60;64.50;;;;;;4494775;31;20009;-69
2022/11/03 10:16:05;;;;;;;;;;;20.70;64.50;;;;;;4494742;31;19978;-71
2022/11/03 10:18:31;;;;;;;;;;;20.70;64.60;;;;;;4494678;31;20381;-70
2022/11/03 10:21:01;;;;;;;;;;;20.70;64.60;;;;;;4494288;31;19966;-70
2022/11/03 10:23:27;;;;;;;;;;;20.70;64.70;;;;;;4495043;31;19992;-71
2022/11/03 10:25:58;;;;;;;;;;;20.70;64.70;;;;;;4494950;31;19969;-71
2022/11/03 10:28:27;;;;;;;;;;;20.70;64.70;;;;;;4494817;31;19973;-70
2022/11/03 10:30:55;;;;;;;;;;;20.80;64.70;;;;;;4479781;31;20028;-71
2022/11/03 10:33:37;;;;;;;;;;;20.80;64.60;;;;;;4494304;31;19984;-72
2022/11/03 10:36:04;;;;;;;;;;;20.80;64.60;;;;;;4494134;31;20014;-70
2022/11/03 10:38:31;;;;;;;;;;;20.90;64.60;;;;;;4494396;31;19977;-71
2022/11/03 10:41:17;;;;;;;;;;;20.90;64.60;;;;;;4495856;31;19985;-70
2022/11/03 10:43:43;;;;;;;;;;;20.90;64.50;;;;;;4496687;31;20408;-70
2022/11/03 10:46:21;;;;;;;;;;;21.00;64.60;;;;;;4496543;31;20331;-70
2022/11/03 10:49:05;;;;;;;;;;;21.00;64.60;;;;;;4494226;31;19981;-70
2022/11/03 10:51:32;;;;;;;;;;;21.00;64.50;;;;;;4493775;31;19981;-65
2022/11/03 10:53:58;;;;;;;;;;;21.00;64.50;;;;;;4493986;31;20107;-69
2022/11/03 10:56:24;;;;;;;;;;;21.10;64.50;;;;;;4494526;31;19969;-69
2022/11/03 10:58:50;;;;;;;;;;;21.00;64.40;;;;;;4494318;31;19977;-69
2022/11/03 11:01:16;;;;;;;;;;;21.10;64.40;;;;;;4493809;31;20094;-70
2022/11/03 11:03:42;;;;;;;;;;;21.10;64.30;;;;;;4493907;31;20104;-69
2022/11/03 11:06:19;;;;;;;;;;;21.10;64.20;;;;;;4493950;31;20028;-70
2022/11/03 11:08:44;;;;;;;;;;;21.10;64.20;;;;;;4494059;31;19977;-70
2022/11/03 11:11:13;;;;;;;;;;;21.10;64.20;;;;;;4494048;31;19976;-70
2022/11/03 11:13:40;;;;;;;;;;;21.10;64.20;;;;;;4493791;31;19973;-69
2022/11/03 11:16:26;;;;;;;;;;;21.10;64.20;;;;;;4493725;31;19988;-69
2022/11/03 11:18:51;;;;;;;;;;;21.20;64.20;;;;;;4493444;31;20104;-70
2022/11/03 11:21:18;;;;;;;;;;;21.20;64.20;;;;;;4479272;31;19980;-69
2022/11/03 11:23:44;;;;;;;;;;;21.20;64.20;;;;;;4493738;31;19985;-70
2022/11/03 11:26:13;;;;;;;;;;;21.20;64.20;;;;;;4493639;31;20322;-69
2022/11/03 11:28:39;;;;;;;;;;;21.20;64.20;;;;;;4493973;31;19977;-70
2022/11/03 11:31:24;;;;;;;;;;;21.30;64.20;;;;;;4479504;31;20009;-70
2022/11/03 11:34:11;;;;;;;;;;;21.30;64.20;;;;;;4493696;31;19989;-70
2022/11/03 11:36:37;;;;;;;;;;;21.30;64.20;;;;;;4493142;31;19992;-70
2022/11/03 11:39:21;;;;;;;;;;;21.30;64.20;;;;;;4493476;31;20052;-70
2022/11/03 11:42:05;;;;;;;;;;;21.30;64.20;;;;;;4492855;31;19974;-70
2022/11/03 11:44:53;;;;;;;;;;;21.30;64.20;;;;;;4493753;31;20371;-70
2022/11/03 11:47:38;;;;;;;;;;;21.30;64.20;;;;;;4493621;31;20145;-70
2022/11/03 11:50:04;;;;;;;;;;;21.20;64.20;;;;;;4493073;31;19984;-69
2022/11/03 11:52:50;;;;;;;;;;;21.20;64.50;;;;;;4493343;31;19997;-70
2022/11/03 11:55:22;;;;;;;;;;;21.10;64.60;;;;;;4485022;31;19989;-70
2022/11/03 11:57:48;;;;;;;;;;;21.00;64.80;;;;;;4493030;31;20296;-70
2022/11/03 12:00:21;;;;;;;;;;;21.00;65.10;;;;;;4493179;31;20386;-72
2022/11/03 12:02:47;;;;;;;;;;;20.90;65.10;;;;;;4493159;31;20449;-70
2022/11/03 12:05:20;;;;;;;;;;;20.80;65.30;;;;;;4493092;31;19994;-70
2022/11/03 12:07:46;;;;;;;;;;;20.80;65.40;;;;;;4479161;31;20401;-71
2022/11/03 12:10:16;;;;;;;;;;;20.70;65.60;;;;;;4493122;31;19970;-70
2022/11/03 12:12:42;;;;;;;;;;;20.70;65.70;;;;;;4493132;31;19970;-70
2022/11/03 12:15:26;;;;;;;;;;;20.60;65.90;;;;;;4493341;31;20027;-71
2022/11/03 12:17:52;;;;;;;;;;;20.60;66.00;;;;;;4492913;31;19977;-71
2022/11/03 12:20:33;;;;;;;;;;;20.50;66.10;;;;;;4492604;31;19958;-71
2022/11/03 12:22:59;;;;;;;;;;;20.40;66.30;;;;;;4493049;31;20011;-72
2022/11/03 12:25:32;;;;;;;;;;;20.40;66.40;;;;;;4493097;31;20415;-72
2022/11/03 12:27:58;;;;;;;;;;;20.40;67.40;;;;;;4492751;31;20191;-72
2022/11/03 12:30:24;;;;;;;;;;;20.30;66.70;;;;;;4492828;31;20405;-71
2022/11/03 12:32:50;;;;;;;;;;;20.30;66.80;;;;;;4492821;31;19961;-70
2022/11/03 12:35:16;;;;;;;;;;;20.20;66.90;;;;;;4492507;31;19973;-71
2022/11/03 12:37:42;;;;;;;;;;;20.20;67.00;;;;;;4492772;31;20055;-71
2022/11/03 12:40:08;;;;;;;;;;;20.20;67.10;;;;;;4492938;31;19962;-71
2022/11/03 12:42:34;;;;;;;;;;;20.10;67.20;;;;;;4492968;31;19981;-71
2022/11/03 12:45:00;;;;;;;;;;;20.10;67.30;;;;;;4492729;31;20338;-72
2022/11/03 12:47:26;;;;;;;;;;;20.10;67.40;;;;;;4492476;31;19989;-71
2022/11/03 12:49:52;;;;;;;;;;;20.00;67.40;;;;;;4493026;32;19962;-71
2022/11/03 12:52:18;;;;;;;;;;;20.00;67.50;;;;;;4492728;31;19961;-71
2022/11/03 12:54:43;;;;;;;;;;;20.00;67.60;;;;;;4496040;31;20557;-72
2022/11/03 12:57:09;;;;;;;;;;;20.00;67.70;;;;;;4495906;31;19966;-74
2022/11/03 12:59:35;;;;;;;;;;;19.90;67.60;;;;;;4495838;31;20028;-71
2022/11/03 13:02:01;;;;;;;;;;;19.90;67.70;;;;;;4495832;31;20284;-71
2022/11/03 13:04:26;;;;;;;;;;;19.90;67.70;;;;;;4481456;31;19973;-71
2022/11/03 13:06:52;;;;;;;;;;;19.90;67.50;;;;;;4495717;31;20417;-70
2022/11/03 13:09:17;;;;;;;;;;;19.80;67.10;;;;;;4495631;31;20095;-70
2022/11/03 13:14:27;;;;;;;;;;;19.70;67.20;;;;;;4495940;31;20035;-70
2022/11/03 13:16:53;;;;;;;;;;;19.70;67.20;;;;;;4495446;31;19982;-70
2022/11/03 13:19:19;;;;;;;;;;;19.70;67.30;;;;;;4495556;31;19969;-70
2022/11/03 13:21:44;;;;;;;;;;;19.70;67.40;;;;;;4495796;31;20363;-70
2022/11/03 13:24:10;;;;;;;;;;;19.60;67.30;;;;;;4495431;31;20036;-70
2022/11/03 13:26:36;;;;;;;;;;;19.60;67.40;;;;;;4481232;31;19982;-70
2022/11/03 13:29:01;;;;;;;;;;;19.60;67.40;;;;;;4495649;31;20015;-70
2022/11/03 13:31:27;;;;;;;;;;;19.60;67.50;;;;;;4495165;31;19977;-70
2022/11/03 13:33:53;;;;;;;;;;;19.60;67.60;;;;;;4495146;31;19961;-70
2022/11/03 13:36:18;;;;;;;;;;;19.60;67.70;;;;;;4494904;31;19980;-70
2022/11/03 13:38:44;;;;;;;;;;;19.50;67.70;;;;;;4494997;31;20051;-70
2022/11/03 13:41:10;;;;;;;;;;;19.50;67.90;;;;;;4494929;31;20011;-70
2022/11/03 13:43:35;;;;;;;;;;;19.50;68.00;;;;;;4495222;31;20430;-70
2022/11/03 13:46:02;;;;;;;;;;;19.50;68.10;;;;;;4495158;31;20092;-72
2022/11/03 13:48:29;;;;;;;;;;;19.50;68.20;;;;;;4480662;31;19981;-70
2022/11/03 13:50:55;;;;;;;;;;;19.40;68.30;;;;;;4494990;31;20048;-71
2022/11/03 13:53:21;;;;;;;;;;;19.50;68.40;;;;;;4494996;31;20446;-70
2022/11/03 13:55:47;;;;;;;;;;;19.40;68.40;;;;;;4494980;31;20335;-71
2022/11/03 13:58:13;;;;;;;;;;;19.40;68.50;;;;;;4480750;31;20386;-70
2022/11/03 14:00:38;;;;;;;;;;;19.40;68.70;;;;;;4494836;31;20046;-71
2022/11/03 14:03:04;;;;;;;;;;;19.40;68.80;;;;;;4480465;31;20028;-69
2022/11/03 14:05:30;;;;;;;;;;;19.40;68.90;;;;;;4494462;31;19972;-70
2022/11/03 14:07:55;;;;;;;;;;;19.40;69.00;;;;;;4494901;31;20123;-71
2022/11/03 14:10:21;;;;;;;;;;;19.40;69.10;;;;;;4495115;31;19958;-71
2022/11/03 14:12:47;;;;;;;;;;;19.40;69.30;;;;;;4495005;31;20315;-71
2022/11/03 14:15:13;;;;;;;;;;;19.30;69.20;;;;;;4494699;31;19977;-71
2022/11/03 14:17:39;;;;;;;;;;;19.30;69.20;;;;;;4494379;31;20029;-71
2022/11/03 14:20:05;;;;;;;;;;;19.40;69.40;;;;;;4494446;31;19974;-71
2022/11/03 14:22:31;;;;;;;;;;;19.30;69.30;;;;;;4494675;31;19977;-71
2022/11/03 14:24:57;;;;;;;;;;;19.30;69.30;;;;;;4494821;31;19974;-71
2022/11/03 14:27:23;;;;;;;;;;;19.30;69.30;;;;;;4494762;31;19975;-70
2022/11/03 14:29:48;;;;;;;;;;;19.30;69.30;;;;;;4494319;31;19962;-70
2022/11/03 14:32:15;;;;;;;;;;;19.30;69.40;;;;;;4494426;31;19977;-71
2022/11/03 14:34:40;;;;;;;;;;;19.30;69.40;;;;;;4494033;31;19984;-71
2022/11/03 14:37:09;;;;;;;;;;;19.30;69.40;;;;;;4494060;31;19993;-71
2022/11/03 14:39:35;;;;;;;;;;;19.20;69.40;;;;;;4494576;31;20024;-71
2022/11/03 14:42:05;;;;;;;;;;;19.20;69.20;;;;;;4494544;31;20025;-71
2022/11/03 14:44:35;;;;;;;;;;;19.20;69.20;;;;;;4494353;31;19973;-70